createdAt,value
2023-03-17T00:01:07.697Z,101301.13
2023-03-17T00:04:11.792Z,101307.91
2023-03-17T00:07:17.026Z,101309.84
2023-03-17T00:10:25.209Z,101313.59
2023-03-17T00:13:28.450Z,101313.50
2023-03-17T00:16:34.952Z,101307.47
2023-03-17T00:19:37.201Z,101311.19
2023-03-17T00:22:39.952Z,101293.97
2023-03-17T00:25:43.322Z,101303.50
2023-03-17T00:28:45.454Z,101303.44
2023-03-17T00:31:48.116Z,101293.97
2023-03-17T00:34:50.358Z,101295.09
2023-03-17T00:37:55.752Z,101289.19
2023-03-17T00:40:59.369Z,101286.50
2023-03-17T00:44:01.854Z,101293.66
2023-03-17T00:47:04.350Z,101299.63
2023-03-17T00:50:10.049Z,101282.25
2023-03-17T00:53:14.348Z,101287.84
2023-03-17T00:56:19.175Z,101280.91
2023-03-17T00:59:30.124Z,101280.00
2023-03-17T01:02:32.458Z,101287.38
2023-03-17T01:05:35.077Z,101284.19
2023-03-17T01:08:39.100Z,101292.00
2023-03-17T01:11:44.159Z,101283.09
2023-03-17T01:14:46.594Z,101288.53
2023-03-17T01:17:50.667Z,101289.56
2023-03-17T01:20:53.351Z,101284.28
2023-03-17T01:23:56.073Z,101290.63
2023-03-17T01:26:59.367Z,101299.25
2023-03-17T01:30:01.575Z,101286.91
2023-03-17T01:33:05.233Z,101286.94
2023-03-17T01:36:07.812Z,101280.06
2023-03-17T01:39:10.100Z,101291.50
2023-03-17T01:42:13.695Z,101290.56
2023-03-17T01:45:53.082Z,101294.03
2023-03-17T01:49:25.827Z,101289.84
2023-03-17T01:52:29.048Z,101296.88
2023-03-17T01:55:32.472Z,101284.69
2023-03-17T01:58:35.556Z,101290.94
2023-03-17T02:01:40.262Z,101284.03
2023-03-17T02:04:43.440Z,101285.81
2023-03-17T02:07:45.919Z,101285.84
2023-03-17T02:10:50.570Z,101289.38
2023-03-17T02:13:53.430Z,101299.13
2023-03-17T02:16:57.413Z,101306.22
2023-03-17T02:20:18.455Z,101316.78
2023-03-17T02:23:23.749Z,101320.41
2023-03-17T02:26:26.888Z,101326.84
2023-03-17T02:29:30.697Z,101333.13
2023-03-17T02:32:36.163Z,101334.72
2023-03-17T02:35:39.398Z,101336.31
2023-03-17T02:38:42.292Z,101338.25
2023-03-17T02:41:44.755Z,101340.03
2023-03-17T02:44:47.048Z,101328.56
2023-03-17T02:47:51.454Z,101323.19
2023-03-17T02:50:54.062Z,101327.72
2023-03-17T02:53:56.408Z,101330.19
2023-03-17T02:56:59.390Z,101327.53
2023-03-17T03:00:01.967Z,101324.94
2023-03-17T03:03:04.212Z,101324.53
2023-03-17T03:06:06.883Z,101332.19
2023-03-17T03:09:10.654Z,101331.41
2023-03-17T03:12:13.911Z,101335.72
2023-03-17T03:15:16.297Z,101320.78
2023-03-17T03:18:18.568Z,101327.72
2023-03-17T03:21:22.102Z,101333.97
2023-03-17T03:24:24.297Z,101327.91
2023-03-17T03:27:26.715Z,101324.69
2023-03-17T03:30:29.190Z,101328.09
2023-03-17T03:33:31.791Z,101329.16
2023-03-17T03:36:34.271Z,101325.72
2023-03-17T03:39:37.529Z,101329.34
2023-03-17T03:42:39.780Z,101330.09
2023-03-17T03:45:42.145Z,101324.91
2023-03-17T03:48:44.364Z,101329.38
2023-03-17T03:51:46.628Z,101325.91
2023-03-17T03:54:49.069Z,101331.00
2023-03-17T03:57:51.436Z,101319.59
2023-03-17T04:00:53.701Z,101324.03
2023-03-17T04:03:56.091Z,101319.81
2023-03-17T04:06:58.429Z,101313.72
2023-03-17T04:10:00.659Z,101318.78
2023-03-17T04:13:03.030Z,101324.75
2023-03-17T04:16:05.609Z,101317.72
2023-03-17T04:19:09.175Z,101307.28
2023-03-17T04:22:13.252Z,101310.91
2023-03-17T04:25:15.876Z,101314.41
2023-03-17T04:28:18.198Z,101305.66
2023-03-17T04:31:21.162Z,101314.50
2023-03-17T04:34:23.766Z,101316.28
2023-03-17T04:37:26.224Z,101312.78
2023-03-17T04:40:28.726Z,101318.00
2023-03-17T04:43:31.259Z,101316.22
2023-03-17T04:46:34.488Z,101326.75
2023-03-17T04:49:36.933Z,101326.75
2023-03-17T04:52:39.347Z,101341.56
2023-03-17T04:55:42.116Z,101340.75
2023-03-17T04:58:44.821Z,101345.13
2023-03-17T05:01:47.224Z,101346.94
2023-03-17T05:04:51.747Z,101335.81
2023-03-17T05:07:54.018Z,101341.84
2023-03-17T05:10:57.338Z,101338.13
2023-03-17T05:13:59.713Z,101341.34
2023-03-17T05:17:02.214Z,101334.66
2023-03-17T05:20:04.965Z,101330.56
2023-03-17T05:23:07.410Z,101329.34
2023-03-17T05:26:10.339Z,101339.34
2023-03-17T05:29:12.642Z,101337.03
2023-03-17T05:32:14.887Z,101332.47
2023-03-17T05:35:17.902Z,101338.34
2023-03-17T05:38:20.563Z,101335.22
2023-03-17T05:41:23.072Z,101338.25
2023-03-17T05:44:25.509Z,101316.66
2023-03-17T05:47:27.889Z,101319.59
2023-03-17T05:50:31.016Z,101318.59
2023-03-17T05:53:33.723Z,101307.47
2023-03-17T05:56:36.039Z,101319.78
2023-03-17T05:59:38.275Z,101329.84
2023-03-17T06:02:40.657Z,101335.22
2023-03-17T06:05:43.215Z,101341.44
2023-03-17T06:08:45.782Z,101340.84
2023-03-17T06:11:48.004Z,101342.09
2023-03-17T06:14:50.340Z,101337.28
2023-03-17T06:17:52.934Z,101342.66
2023-03-17T06:20:55.185Z,101346.28
2023-03-17T06:23:57.434Z,101345.50
2023-03-17T06:26:59.886Z,101349.00
2023-03-17T06:30:02.261Z,101354.13
2023-03-17T06:33:05.706Z,101350.50
2023-03-17T06:36:08.845Z,101345.94
2023-03-17T06:39:11.850Z,101354.22
2023-03-17T06:42:14.471Z,101361.78
2023-03-17T06:45:17.381Z,101358.00
2023-03-17T06:48:19.802Z,101360.28
2023-03-17T06:51:22.130Z,101364.28
2023-03-17T06:54:25.523Z,101368.66
2023-03-17T06:57:27.991Z,101367.25
2023-03-17T07:00:30.493Z,101355.41
2023-03-17T07:03:33.686Z,101361.34
2023-03-17T07:06:36.150Z,101371.44
2023-03-17T07:09:38.447Z,101360.63
2023-03-17T07:12:41.369Z,101355.31
2023-03-17T07:15:45.391Z,101347.34
2023-03-17T07:18:47.774Z,101343.44
2023-03-17T07:21:50.041Z,101340.94
2023-03-17T07:24:52.603Z,101331.59
2023-03-17T07:27:54.996Z,101347.38
2023-03-17T07:30:58.170Z,101349.56
2023-03-17T07:34:00.465Z,101345.13
2023-03-17T07:37:03.360Z,101339.63
2023-03-17T07:40:06.466Z,101340.91
2023-03-17T07:43:08.609Z,101338.06
2023-03-17T07:46:10.936Z,101343.97
2023-03-17T07:49:13.307Z,101343.28
2023-03-17T07:52:16.028Z,101346.84
2023-03-17T07:55:18.414Z,101352.63
2023-03-17T07:58:20.780Z,101346.88
2023-03-17T08:01:24.532Z,101336.75
2023-03-17T08:04:27.696Z,101332.69
2023-03-17T08:07:31.679Z,101339.00
2023-03-17T08:10:34.599Z,101331.88
2023-03-17T08:13:37.626Z,101332.16
2023-03-17T08:16:39.957Z,101325.22
2023-03-17T08:19:42.548Z,101325.16
2023-03-17T08:22:44.855Z,101330.97
2023-03-17T08:25:47.890Z,101332.16
2023-03-17T08:28:50.374Z,101335.16
2023-03-17T08:31:52.788Z,101333.50
2023-03-17T08:34:55.158Z,101329.16
2023-03-17T08:37:57.541Z,101320.41
2023-03-17T08:41:02.024Z,101317.69
2023-03-17T08:44:04.316Z,101315.28
2023-03-17T08:47:06.703Z,101320.03
2023-03-17T08:50:13.523Z,101313.75
2023-03-17T08:53:15.794Z,101326.56
2023-03-17T08:56:18.090Z,101312.06
2023-03-17T08:59:20.705Z,101308.19
2023-03-17T09:02:23.506Z,101308.16
2023-03-17T09:05:26.740Z,101310.53
2023-03-17T09:08:29.267Z,101317.41
2023-03-17T09:11:32.779Z,101304.97
2023-03-17T09:14:43.326Z,101317.88
2023-03-17T09:17:46.304Z,101317.34
2023-03-17T09:20:48.792Z,101319.78
2023-03-17T09:23:51.361Z,101311.22
2023-03-17T09:26:53.680Z,101300.53
2023-03-17T09:29:56.337Z,101298.53
2023-03-17T09:32:59.116Z,101289.38
2023-03-17T09:36:01.594Z,101300.16
2023-03-17T09:39:03.907Z,101292.03
2023-03-17T09:42:24.378Z,101284.72
2023-03-17T09:45:42.972Z,101288.91
2023-03-17T09:49:14.950Z,101295.28
2023-03-17T10:04:25.597Z,101304.75
2023-03-17T10:07:38.252Z,101302.66
2023-03-17T10:10:53.712Z,101304.50
2023-03-17T10:14:15.692Z,101303.16
2023-03-17T10:17:23.701Z,101309.88
2023-03-17T10:20:28.868Z,101304.53
2023-03-17T10:23:33.597Z,101290.78
2023-03-17T10:27:06.430Z,101293.50
2023-03-17T10:30:17.488Z,101291.72
2023-03-17T10:33:20.371Z,101294.78
2023-03-17T10:36:32.976Z,101273.94
2023-03-17T10:39:47.022Z,101275.22
2023-03-17T10:43:03.863Z,101267.03
2023-03-17T10:46:14.214Z,101273.28
2023-03-17T10:49:17.347Z,101275.50
2023-03-17T10:52:27.737Z,101265.88
2023-03-17T10:55:33.891Z,101271.44
2023-03-17T10:58:55.024Z,101272.13
2023-03-17T11:01:59.496Z,101264.41
2023-03-17T11:05:23.070Z,101252.13
2023-03-17T11:08:25.373Z,101243.72
2023-03-17T11:11:30.463Z,101231.91
2023-03-17T11:14:33.111Z,101230.47
2023-03-17T11:17:47.772Z,101235.78
2023-03-17T11:20:52.876Z,101238.59
2023-03-17T11:24:18.175Z,101236.56
2023-03-17T11:27:27.608Z,101236.13
2023-03-17T11:31:09.442Z,101235.63
2023-03-17T11:34:31.605Z,101226.75
2023-03-17T11:37:45.915Z,101216.22
2023-03-17T11:41:09.114Z,101218.41
2023-03-17T11:44:18.449Z,101218.44
2023-03-17T11:47:38.661Z,101204.56
2023-03-17T11:50:47.786Z,101190.88
2023-03-17T11:54:04.164Z,101187.84
2023-03-17T11:57:17.631Z,101192.31
2023-03-17T12:00:33.722Z,101178.75
2023-03-17T12:04:09.217Z,101181.56
2023-03-17T12:07:33.454Z,101172.34
2023-03-17T12:10:48.164Z,101150.41
2023-03-17T12:14:00.149Z,101143.84
2023-03-17T12:17:26.990Z,101141.16
2023-03-17T12:20:39.616Z,101148.06
2023-03-17T12:23:53.074Z,101147.78
2023-03-17T12:27:28.509Z,101150.75
2023-03-17T12:30:34.212Z,101144.47
2023-03-17T12:33:58.812Z,101134.31
2023-03-17T12:37:02.745Z,101124.41
2023-03-17T12:40:20.286Z,101132.41
2023-03-17T12:43:38.990Z,101125.09
2023-03-17T12:47:15.817Z,101125.41
2023-03-17T12:50:28.078Z,101113.56
2023-03-17T12:53:33.335Z,101102.78
2023-03-17T12:56:36.731Z,101112.09
2023-03-17T12:59:42.240Z,101113.09
2023-03-17T13:02:50.454Z,101104.59
2023-03-17T13:05:58.510Z,101104.44
2023-03-17T13:09:31.632Z,101100.53
2023-03-17T13:12:37.049Z,101097.94
2023-03-17T13:15:39.757Z,101099.34
2023-03-17T13:18:41.961Z,101092.44
2023-03-17T13:22:00.026Z,101076.22
2023-03-17T13:25:41.835Z,101076.94
2023-03-17T13:28:47.688Z,101074.75
2023-03-17T13:31:50.200Z,101079.47
2023-03-17T13:34:55.881Z,101078.44
2023-03-17T13:38:13.356Z,101070.47
2023-03-17T13:41:37.793Z,101077.22
2023-03-17T13:44:58.438Z,101070.88
2023-03-17T13:48:32.131Z,101065.59
2023-03-17T13:51:34.527Z,101075.69
2023-03-17T13:54:51.348Z,101070.53
2023-03-17T13:58:11.432Z,101070.81
2023-03-17T14:01:15.104Z,101071.75
2023-03-17T14:04:19.068Z,101065.75
2023-03-17T14:07:28.610Z,101056.50
2023-03-17T14:10:33.424Z,101064.91
2023-03-17T14:13:46.883Z,101051.72
2023-03-17T14:17:03.359Z,101042.44
2023-03-17T14:20:18.541Z,101037.69
2023-03-17T14:23:21.570Z,101035.56
2023-03-17T14:26:25.137Z,101037.91
2023-03-17T14:29:32.595Z,101029.31
2023-03-17T14:32:34.890Z,101021.41
2023-03-17T14:35:41.985Z,101024.34
2023-03-17T14:38:49.832Z,101026.47
2023-03-17T14:42:05.710Z,101012.66
2023-03-17T14:45:09.038Z,101011.97
2023-03-17T14:48:16.515Z,101003.09
2023-03-17T14:51:27.901Z,100996.16
2023-03-17T14:54:32.777Z,100983.81
2023-03-17T14:57:38.642Z,100990.00
2023-03-17T15:00:55.038Z,100975.13
2023-03-17T15:04:12.054Z,100975.97
2023-03-17T15:07:31.908Z,100975.31
2023-03-17T15:10:42.411Z,100984.34
2023-03-17T15:13:45.118Z,100971.78
2023-03-17T15:16:49.740Z,100977.00
2023-03-17T15:19:54.408Z,100974.44
2023-03-17T15:23:03.989Z,100970.00
2023-03-17T15:26:09.964Z,100957.53
2023-03-17T15:29:12.223Z,100956.59
2023-03-17T15:32:20.401Z,100961.44
2023-03-17T15:35:22.663Z,100956.34
2023-03-17T15:38:24.984Z,100953.22
2023-03-17T15:41:27.239Z,100953.56
2023-03-17T15:44:29.955Z,100949.50
2023-03-17T15:47:34.266Z,100943.94
2023-03-17T15:50:36.736Z,100948.72
2023-03-17T15:53:39.021Z,100946.56
2023-03-17T15:56:43.245Z,100943.00
2023-03-17T15:59:45.470Z,100941.22
2023-03-17T16:02:49.538Z,100941.69
2023-03-17T16:05:51.756Z,100938.56
2023-03-17T16:08:54.008Z,100941.72
2023-03-17T16:11:56.216Z,100943.84
2023-03-17T16:14:58.493Z,100945.00
2023-03-17T16:18:04.190Z,100939.84
2023-03-17T16:21:06.523Z,100940.22
2023-03-17T16:24:17.728Z,100940.94
2023-03-17T16:27:20.099Z,100942.88
2023-03-17T16:30:26.311Z,100946.06
2023-03-17T16:33:32.431Z,100944.44
2023-03-17T16:36:34.720Z,100956.13
2023-03-17T16:39:37.079Z,100946.56
2023-03-17T16:42:41.532Z,100947.25
2023-03-17T16:45:43.819Z,100950.41
2023-03-17T16:48:48.316Z,100954.19
2023-03-17T16:51:50.845Z,100953.16
2023-03-17T16:54:53.105Z,100947.88
2023-03-17T16:57:58.717Z,100953.06
2023-03-17T17:01:03.204Z,100950.13
2023-03-17T17:04:10.265Z,100968.00
2023-03-17T17:07:12.477Z,100969.19
2023-03-17T17:10:16.951Z,100964.66
2023-03-17T17:13:19.268Z,100966.94
2023-03-17T17:16:33.412Z,100965.38
2023-03-17T17:19:35.893Z,100959.50
2023-03-17T17:22:38.150Z,100962.16
2023-03-17T17:25:41.316Z,100961.94
2023-03-17T17:28:43.441Z,100961.22
2023-03-17T17:31:45.884Z,100962.59
2023-03-17T17:34:48.222Z,100961.06
2023-03-17T17:37:50.658Z,100968.06
2023-03-17T17:40:54.520Z,100970.00
2023-03-17T17:43:56.793Z,100960.13
2023-03-17T17:46:59.043Z,100969.78
2023-03-17T17:50:01.302Z,100964.44
2023-03-17T17:53:05.712Z,100973.97
2023-03-17T17:56:10.984Z,100964.97
2023-03-17T17:59:14.466Z,100953.03
2023-03-17T18:02:18.200Z,100964.31
2023-03-17T18:05:20.739Z,100962.75
2023-03-17T18:08:24.119Z,100958.63
2023-03-17T18:11:26.535Z,100963.19
2023-03-17T18:14:28.779Z,100969.69
2023-03-17T18:17:32.532Z,100968.94
2023-03-17T18:20:35.352Z,100972.66
2023-03-17T18:23:37.949Z,100970.66
2023-03-17T18:26:41.533Z,100969.56
2023-03-17T18:29:43.939Z,100970.94
2023-03-17T18:32:49.580Z,100967.88
2023-03-17T18:35:52.260Z,100959.09
2023-03-17T18:38:54.555Z,100968.53
2023-03-17T18:41:56.920Z,100975.53
2023-03-17T18:44:59.193Z,100967.66
2023-03-17T18:48:01.526Z,100973.38
2023-03-17T18:51:03.912Z,100967.75
2023-03-17T18:54:06.292Z,100968.66
2023-03-17T18:57:08.561Z,100971.97
2023-03-17T19:00:11.842Z,100969.97
2023-03-17T19:03:14.191Z,100966.97
2023-03-17T19:06:19.021Z,100965.66
2023-03-17T19:09:22.265Z,100967.38
2023-03-17T19:12:24.779Z,100971.09
2023-03-17T19:15:27.132Z,100964.53
2023-03-17T19:18:29.352Z,100965.38
2023-03-17T19:21:32.480Z,100967.66
2023-03-17T19:24:35.739Z,100960.38
2023-03-17T19:27:38.120Z,100960.09
2023-03-17T19:30:40.546Z,100973.38
2023-03-17T19:33:42.804Z,100966.91
2023-03-17T19:36:48.295Z,100959.50
2023-03-17T19:39:50.666Z,100959.16
2023-03-17T19:42:53.033Z,100965.59
2023-03-17T19:45:55.903Z,100956.63
2023-03-17T19:48:58.453Z,100962.84
2023-03-17T19:52:01.374Z,100959.91
2023-03-17T19:55:05.941Z,100955.72
2023-03-17T19:58:11.863Z,100952.22
2023-03-17T20:01:14.262Z,100948.56
2023-03-17T20:04:22.091Z,100937.06
2023-03-17T20:07:24.499Z,100938.78
2023-03-17T20:10:27.050Z,100934.50
2023-03-17T20:13:29.277Z,100933.94
2023-03-17T20:16:33.697Z,100941.34
2023-03-17T20:19:39.269Z,100944.91
2023-03-17T20:22:43.659Z,100940.63
2023-03-17T20:25:46.815Z,100941.38
2023-03-17T20:28:49.058Z,100936.16
2023-03-17T20:31:51.486Z,100941.66
2023-03-17T20:34:54.331Z,100937.69
2023-03-17T20:37:57.986Z,100931.41
2023-03-17T20:41:12.562Z,100936.69
2023-03-17T20:44:15.449Z,100942.69
2023-03-17T20:47:17.824Z,100940.84
2023-03-17T20:50:21.097Z,100937.44
2023-03-17T20:53:23.362Z,100939.28
2023-03-17T20:56:26.803Z,100939.41
2023-03-17T20:59:30.079Z,100934.28
2023-03-17T21:02:32.347Z,100930.78
2023-03-17T21:05:35.634Z,100932.25
2023-03-17T21:08:38.783Z,100926.69
2023-03-17T21:11:41.213Z,100932.09
2023-03-17T21:14:43.739Z,100930.41
2023-03-17T21:17:45.938Z,100927.81
2023-03-17T21:20:49.156Z,100928.06
2023-03-17T21:23:51.261Z,100924.63
2023-03-17T21:26:53.490Z,100920.44
2023-03-17T21:29:56.399Z,100917.00
2023-03-17T21:33:00.253Z,100917.31
2023-03-17T21:36:02.823Z,100921.38
2023-03-17T21:39:05.946Z,100916.06
2023-03-17T21:42:09.733Z,100923.59
2023-03-17T21:45:12.533Z,100918.91
2023-03-17T21:48:14.965Z,100919.75
2023-03-17T21:51:17.435Z,100920.81
2023-03-17T21:54:20.406Z,100916.59
2023-03-17T21:57:22.935Z,100919.38
2023-03-17T22:00:27.176Z,100926.41
2023-03-17T22:03:32.311Z,100923.75
2023-03-17T22:06:34.701Z,100919.88
2023-03-17T22:09:37.674Z,100920.09
2023-03-17T22:12:39.992Z,100927.59
2023-03-17T22:15:42.816Z,100924.84
2023-03-17T22:18:46.145Z,100927.38
2023-03-17T22:21:48.588Z,100933.56
2023-03-17T22:24:50.922Z,100921.31
2023-03-17T22:27:54.681Z,100914.69
2023-03-17T22:30:56.925Z,100926.81
2023-03-17T22:33:59.811Z,100930.25
2023-03-17T22:37:02.037Z,100914.88
2023-03-17T22:40:06.381Z,100924.56
2023-03-17T22:43:08.741Z,100919.34
2023-03-17T22:46:11.912Z,100914.94
2023-03-17T22:49:14.079Z,100907.34
2023-03-17T22:52:16.217Z,100913.47
2023-03-17T22:55:18.609Z,100919.72
2023-03-17T22:58:20.826Z,100913.59
2023-03-17T23:01:25.711Z,100916.28
2023-03-17T23:04:28.131Z,100916.19
2023-03-17T23:07:35.577Z,100912.56
2023-03-17T23:10:43.427Z,100910.78
2023-03-17T23:13:47.417Z,100910.16
2023-03-17T23:16:49.702Z,100903.44
2023-03-17T23:19:52.240Z,100899.81
2023-03-17T23:22:54.910Z,100904.91
2023-03-17T23:25:57.453Z,100905.66
2023-03-17T23:28:59.738Z,100905.66
2023-03-17T23:32:02.178Z,100903.78
2023-03-17T23:35:04.967Z,100906.31
2023-03-17T23:38:08.689Z,100897.25
2023-03-17T23:41:12.783Z,100892.75
2023-03-17T23:44:15.024Z,100895.28
2023-03-17T23:47:17.771Z,100892.53
2023-03-17T23:50:21.663Z,100890.69
2023-03-17T23:53:24.653Z,100889.72
2023-03-17T23:56:27.487Z,100893.97
2023-03-17T23:59:29.768Z,100888.72
